Oakland County International Airport Pontiac US
ICAO: KPTK
IATA: PTK
Category: Medium
Scheduled Services: No

Elevation: 980 ft
TransAlt. 18000 ft.

Airport Communications:
DETROIT APP/DEP:127.5
ATIS:125.45
CLNC DEL:118.25
CTAF:120.5
GND:121.9
LANSING RDO:111
PONTIAC TWR:120.5
UNICOM:122.95

KPTK Zoom In..

If you have problems with the map follow the link
https://www.worldairports.se/pages/airport.php?
ICAO=KPTK

Runways:

(A) RW 09L length 5676 ft width 100 ft
---- / hdg 92

(B) RW 09R length 6521 ft width 150 ft
ILS 111.10 / hdg 92

(C) RW 18 length 2582 ft width 75 ft
---- / hdg 176

(D) RW 27L length 6521 ft width 150 ft
---- / hdg 272

(E) RW 27R length 5676 ft width 100 ft
---- / hdg 272

(F) RW 36 length 2582 ft width 75 ft
---- / hdg 356

Location; KPTK
Day. 12 / Time. 07.53 Zulu
* Altimeter: 30.53
* Temperature: -11° c. -12.2°f.
* Wind from: 000° Speed 00 kn.
Dewpoint: -13° c.
Visibility: 10 Statute Miles.
Clouds: Clear (automated report).

KPTK 120753Z AUTO 00000KT 10SM CLR M11/M13 A3053 RMK AO2 SLP357 T11111133


Wind - Calm.

 
 
jpsmedia worldairports.se 2019   terms of use